sensor_id;sensor_type;location;lat;lon;timestamp;P1;durP1;ratioP1;P2;durP2;ratioP2
73575;SDS011;61859;49.204;8.140;2023-05-07T00:01:16;2.00;;;1.50;;
73575;SDS011;61859;49.204;8.140;2023-05-07T00:03:41;1.60;;;1.50;;
73575;SDS011;61859;49.204;8.140;2023-05-07T00:06:07;2.97;;;1.97;;
73575;SDS011;61859;49.204;8.140;2023-05-07T00:08:32;1.97;;;1.80;;
73575;SDS011;61859;49.204;8.140;2023-05-07T00:10:58;2.30;;;1.80;;
73575;SDS011;61859;49.204;8.140;2023-05-07T00:13:23;3.37;;;2.00;;
73575;SDS011;61859;49.204;8.140;2023-05-07T00:15:49;2.73;;;1.80;;
73575;SDS011;61859;49.204;8.140;2023-05-07T00:18:15;2.17;;;1.97;;
73575;SDS011;61859;49.204;8.140;2023-05-07T00:20:40;1.93;;;1.80;;
73575;SDS011;61859;49.204;8.140;2023-05-07T00:23:06;2.53;;;1.70;;
73575;SDS011;61859;49.204;8.140;2023-05-07T00:25:31;1.90;;;1.80;;
73575;SDS011;61859;49.204;8.140;2023-05-07T00:27:57;2.37;;;2.00;;
73575;SDS011;61859;49.204;8.140;2023-05-07T00:30:27;2.00;;;1.90;;
73575;SDS011;61859;49.204;8.140;2023-05-07T00:32:53;5.57;;;1.97;;
73575;SDS011;61859;49.204;8.140;2023-05-07T00:35:19;3.43;;;1.67;;
73575;SDS011;61859;49.204;8.140;2023-05-07T00:37:44;1.90;;;1.80;;
73575;SDS011;61859;49.204;8.140;2023-05-07T00:40:10;2.40;;;1.70;;
73575;SDS011;61859;49.204;8.140;2023-05-07T00:42:36;4.70;;;1.63;;
73575;SDS011;61859;49.204;8.140;2023-05-07T00:45:02;1.90;;;1.80;;
73575;SDS011;61859;49.204;8.140;2023-05-07T00:47:28;2.77;;;1.87;;
73575;SDS011;61859;49.204;8.140;2023-05-07T00:49:53;3.93;;;1.90;;
73575;SDS011;61859;49.204;8.140;2023-05-07T00:52:19;2.17;;;1.97;;
73575;SDS011;61859;49.204;8.140;2023-05-07T00:54:48;3.07;;;1.80;;
73575;SDS011;61859;49.204;8.140;2023-05-07T00:57:14;1.70;;;1.60;;
73575;SDS011;61859;49.204;8.140;2023-05-07T00:59:40;1.73;;;1.63;;
73575;SDS011;61859;49.204;8.140;2023-05-07T01:02:06;1.80;;;1.63;;
73575;SDS011;61859;49.204;8.140;2023-05-07T01:04:32;2.77;;;1.77;;
73575;SDS011;61859;49.204;8.140;2023-05-07T01:06:58;2.10;;;1.63;;
73575;SDS011;61859;49.204;8.140;2023-05-07T01:09:25;1.90;;;1.80;;
73575;SDS011;61859;49.204;8.140;2023-05-07T01:11:51;4.13;;;2.10;;
73575;SDS011;61859;49.204;8.140;2023-05-07T01:14:18;2.57;;;2.13;;
73575;SDS011;61859;49.204;8.140;2023-05-07T01:16:45;2.47;;;1.67;;
73575;SDS011;61859;49.204;8.140;2023-05-07T01:19:11;2.00;;;1.90;;
73575;SDS011;61859;49.204;8.140;2023-05-07T01:21:41;2.83;;;2.20;;
73575;SDS011;61859;49.204;8.140;2023-05-07T01:24:10;2.07;;;1.87;;
73575;SDS011;61859;49.204;8.140;2023-05-07T01:26:36;2.27;;;2.07;;
73575;SDS011;61859;49.204;8.140;2023-05-07T01:29:02;2.20;;;2.00;;
73575;SDS011;61859;49.204;8.140;2023-05-07T01:31:28;2.47;;;2.17;;
73575;SDS011;61859;49.204;8.140;2023-05-07T01:33:54;2.50;;;1.83;;
73575;SDS011;61859;49.204;8.140;2023-05-07T01:36:21;3.63;;;2.00;;
73575;SDS011;61859;49.204;8.140;2023-05-07T01:38:50;2.60;;;2.20;;
73575;SDS011;61859;49.204;8.140;2023-05-07T01:41:17;2.63;;;2.37;;
73575;SDS011;61859;49.204;8.140;2023-05-07T01:43:43;2.40;;;2.10;;
73575;SDS011;61859;49.204;8.140;2023-05-07T01:46:09;2.37;;;2.10;;
73575;SDS011;61859;49.204;8.140;2023-05-07T01:48:36;4.10;;;2.07;;
73575;SDS011;61859;49.204;8.140;2023-05-07T01:51:03;3.17;;;2.00;;
73575;SDS011;61859;49.204;8.140;2023-05-07T01:53:35;3.23;;;2.20;;
73575;SDS011;61859;49.204;8.140;2023-05-07T01:56:01;2.20;;;2.00;;
73575;SDS011;61859;49.204;8.140;2023-05-07T01:58:27;2.07;;;1.80;;
73575;SDS011;61859;49.204;8.140;2023-05-07T02:00:52;3.27;;;2.10;;
73575;SDS011;61859;49.204;8.140;2023-05-07T02:03:18;3.03;;;2.13;;
73575;SDS011;61859;49.204;8.140;2023-05-07T02:05:43;2.93;;;2.20;;
73575;SDS011;61859;49.204;8.140;2023-05-07T02:08:09;3.10;;;2.40;;
73575;SDS011;61859;49.204;8.140;2023-05-07T02:10:34;2.60;;;2.30;;
73575;SDS011;61859;49.204;8.140;2023-05-07T02:13:01;2.40;;;2.20;;
73575;SDS011;61859;49.204;8.140;2023-05-07T02:15:27;4.40;;;2.37;;
73575;SDS011;61859;49.204;8.140;2023-05-07T02:18:02;3.03;;;2.20;;
73575;SDS011;61859;49.204;8.140;2023-05-07T02:20:31;3.90;;;2.20;;
73575;SDS011;61859;49.204;8.140;2023-05-07T02:22:56;3.83;;;2.40;;
73575;SDS011;61859;49.204;8.140;2023-05-07T02:25:22;4.03;;;2.40;;
73575;SDS011;61859;49.204;8.140;2023-05-07T02:27:47;2.80;;;2.60;;
73575;SDS011;61859;49.204;8.140;2023-05-07T02:30:13;2.70;;;2.47;;
73575;SDS011;61859;49.204;8.140;2023-05-07T02:32:39;2.53;;;2.17;;
73575;SDS011;61859;49.204;8.140;2023-05-07T02:35:05;5.33;;;2.40;;
73575;SDS011;61859;49.204;8.140;2023-05-07T02:37:30;2.40;;;2.20;;
73575;SDS011;61859;49.204;8.140;2023-05-07T02:39:56;3.90;;;2.43;;
73575;SDS011;61859;49.204;8.140;2023-05-07T02:42:21;2.33;;;2.10;;
73575;SDS011;61859;49.204;8.140;2023-05-07T02:44:47;2.40;;;2.20;;
73575;SDS011;61859;49.204;8.140;2023-05-07T02:47:13;2.30;;;2.10;;
73575;SDS011;61859;49.204;8.140;2023-05-07T02:49:40;4.87;;;2.50;;
73575;SDS011;61859;49.204;8.140;2023-05-07T02:52:05;2.43;;;2.13;;
73575;SDS011;61859;49.204;8.140;2023-05-07T02:54:31;2.63;;;2.20;;
73575;SDS011;61859;49.204;8.140;2023-05-07T02:56:57;2.90;;;2.60;;
73575;SDS011;61859;49.204;8.140;2023-05-07T02:59:23;4.77;;;2.40;;
73575;SDS011;61859;49.204;8.140;2023-05-07T03:01:49;3.37;;;2.00;;
73575;SDS011;61859;49.204;8.140;2023-05-07T03:04:14;2.43;;;2.07;;
73575;SDS011;61859;49.204;8.140;2023-05-07T03:06:40;2.23;;;2.03;;
73575;SDS011;61859;49.204;8.140;2023-05-07T03:09:05;2.70;;;2.20;;
73575;SDS011;61859;49.204;8.140;2023-05-07T03:11:31;2.60;;;2.40;;
73575;SDS011;61859;49.204;8.140;2023-05-07T03:13:57;2.47;;;2.27;;
73575;SDS011;61859;49.204;8.140;2023-05-07T03:16:22;3.10;;;2.10;;
73575;SDS011;61859;49.204;8.140;2023-05-07T03:18:48;2.83;;;2.40;;
73575;SDS011;61859;49.204;8.140;2023-05-07T03:21:13;3.00;;;2.70;;
73575;SDS011;61859;49.204;8.140;2023-05-07T03:23:39;2.70;;;2.40;;
73575;SDS011;61859;49.204;8.140;2023-05-07T03:26:05;6.23;;;2.23;;
73575;SDS011;61859;49.204;8.140;2023-05-07T03:28:30;2.70;;;2.50;;
73575;SDS011;61859;49.204;8.140;2023-05-07T03:30:56;3.47;;;2.57;;
73575;SDS011;61859;49.204;8.140;2023-05-07T03:33:21;2.77;;;2.10;;
73575;SDS011;61859;49.204;8.140;2023-05-07T03:35:47;2.67;;;2.07;;
73575;SDS011;61859;49.204;8.140;2023-05-07T03:38:12;2.30;;;2.10;;
73575;SDS011;61859;49.204;8.140;2023-05-07T03:40:38;2.77;;;2.27;;
73575;SDS011;61859;49.204;8.140;2023-05-07T03:43:03;3.23;;;2.43;;
73575;SDS011;61859;49.204;8.140;2023-05-07T03:45:29;2.80;;;2.60;;
73575;SDS011;61859;49.204;8.140;2023-05-07T03:47:54;2.50;;;2.10;;
73575;SDS011;61859;49.204;8.140;2023-05-07T03:50:20;3.23;;;2.33;;
73575;SDS011;61859;49.204;8.140;2023-05-07T03:52:46;3.07;;;2.73;;
73575;SDS011;61859;49.204;8.140;2023-05-07T03:55:11;3.07;;;2.40;;
73575;SDS011;61859;49.204;8.140;2023-05-07T03:57:37;2.20;;;2.00;;
73575;SDS011;61859;49.204;8.140;2023-05-07T04:00:02;3.83;;;2.30;;
73575;SDS011;61859;49.204;8.140;2023-05-07T04:02:29;2.27;;;2.07;;
73575;SDS011;61859;49.204;8.140;2023-05-07T04:04:55;2.10;;;2.00;;
73575;SDS011;61859;49.204;8.140;2023-05-07T04:07:21;2.43;;;2.10;;
73575;SDS011;61859;49.204;8.140;2023-05-07T04:09:46;2.30;;;2.10;;
73575;SDS011;61859;49.204;8.140;2023-05-07T04:12:12;3.20;;;2.20;;
73575;SDS011;61859;49.204;8.140;2023-05-07T04:14:37;2.63;;;2.43;;
73575;SDS011;61859;49.204;8.140;2023-05-07T04:17:03;4.70;;;1.93;;
73575;SDS011;61859;49.204;8.140;2023-05-07T04:19:28;2.90;;;2.23;;
73575;SDS011;61859;49.204;8.140;2023-05-07T04:21:54;3.13;;;2.30;;
73575;SDS011;61859;49.204;8.140;2023-05-07T04:24:19;2.53;;;1.90;;
73575;SDS011;61859;49.204;8.140;2023-05-07T04:26:45;3.43;;;2.43;;
73575;SDS011;61859;49.204;8.140;2023-05-07T04:29:10;2.73;;;2.23;;
73575;SDS011;61859;49.204;8.140;2023-05-07T04:31:36;4.10;;;2.10;;
73575;SDS011;61859;49.204;8.140;2023-05-07T04:34:01;3.60;;;2.40;;
73575;SDS011;61859;49.204;8.140;2023-05-07T04:36:27;2.63;;;2.00;;
73575;SDS011;61859;49.204;8.140;2023-05-07T04:38:54;3.73;;;2.70;;
73575;SDS011;61859;49.204;8.140;2023-05-07T04:41:19;3.97;;;2.50;;
73575;SDS011;61859;49.204;8.140;2023-05-07T04:43:45;2.40;;;2.20;;
73575;SDS011;61859;49.204;8.140;2023-05-07T04:46:11;2.17;;;1.90;;
73575;SDS011;61859;49.204;8.140;2023-05-07T04:48:36;2.60;;;2.40;;
73575;SDS011;61859;49.204;8.140;2023-05-07T04:51:02;2.30;;;2.10;;
73575;SDS011;61859;49.204;8.140;2023-05-07T04:53:28;3.77;;;2.30;;
73575;SDS011;61859;49.204;8.140;2023-05-07T04:55:56;2.80;;;2.50;;
73575;SDS011;61859;49.204;8.140;2023-05-07T04:58:22;2.60;;;2.20;;
73575;SDS011;61859;49.204;8.140;2023-05-07T05:00:48;3.50;;;2.33;;
73575;SDS011;61859;49.204;8.140;2023-05-07T05:03:14;3.63;;;2.13;;
73575;SDS011;61859;49.204;8.140;2023-05-07T05:05:40;2.40;;;2.20;;
73575;SDS011;61859;49.204;8.140;2023-05-07T05:08:05;4.37;;;2.33;;
73575;SDS011;61859;49.204;8.140;2023-05-07T05:10:31;2.57;;;2.10;;
73575;SDS011;61859;49.204;8.140;2023-05-07T05:12:57;3.70;;;2.37;;
73575;SDS011;61859;49.204;8.140;2023-05-07T05:15:22;2.70;;;2.30;;
73575;SDS011;61859;49.204;8.140;2023-05-07T05:17:48;4.63;;;2.23;;
73575;SDS011;61859;49.204;8.140;2023-05-07T05:20:13;3.30;;;2.30;;
73575;SDS011;61859;49.204;8.140;2023-05-07T05:22:40;2.50;;;2.30;;
73575;SDS011;61859;49.204;8.140;2023-05-07T05:25:07;3.07;;;2.17;;
73575;SDS011;61859;49.204;8.140;2023-05-07T05:27:32;3.60;;;2.17;;
73575;SDS011;61859;49.204;8.140;2023-05-07T05:29:59;4.93;;;2.37;;
73575;SDS011;61859;49.204;8.140;2023-05-07T05:32:24;2.20;;;2.00;;
73575;SDS011;61859;49.204;8.140;2023-05-07T05:34:50;2.20;;;2.00;;
73575;SDS011;61859;49.204;8.140;2023-05-07T05:37:16;5.10;;;1.90;;
73575;SDS011;61859;49.204;8.140;2023-05-07T05:39:41;2.17;;;1.97;;
73575;SDS011;61859;49.204;8.140;2023-05-07T05:42:07;2.40;;;2.20;;
73575;SDS011;61859;49.204;8.140;2023-05-07T05:44:33;2.07;;;1.97;;
73575;SDS011;61859;49.204;8.140;2023-05-07T05:46:58;2.20;;;2.00;;
73575;SDS011;61859;49.204;8.140;2023-05-07T05:49:24;2.90;;;2.10;;
73575;SDS011;61859;49.204;8.140;2023-05-07T05:51:50;3.00;;;2.07;;
73575;SDS011;61859;49.204;8.140;2023-05-07T05:54:15;2.03;;;1.93;;
73575;SDS011;61859;49.204;8.140;2023-05-07T05:56:41;2.53;;;2.33;;
73575;SDS011;61859;49.204;8.140;2023-05-07T05:59:07;3.43;;;2.07;;
73575;SDS011;61859;49.204;8.140;2023-05-07T06:01:32;2.70;;;2.00;;
73575;SDS011;61859;49.204;8.140;2023-05-07T06:03:58;2.50;;;2.07;;
73575;SDS011;61859;49.204;8.140;2023-05-07T06:06:23;1.97;;;1.80;;
73575;SDS011;61859;49.204;8.140;2023-05-07T06:08:49;2.53;;;1.90;;
73575;SDS011;61859;49.204;8.140;2023-05-07T06:11:15;2.00;;;1.83;;
73575;SDS011;61859;49.204;8.140;2023-05-07T06:13:40;3.57;;;2.00;;
73575;SDS011;61859;49.204;8.140;2023-05-07T06:16:06;3.00;;;2.20;;
73575;SDS011;61859;49.204;8.140;2023-05-07T06:18:32;1.70;;;1.60;;
73575;SDS011;61859;49.204;8.140;2023-05-07T06:20:57;3.17;;;1.90;;
73575;SDS011;61859;49.204;8.140;2023-05-07T06:23:23;2.17;;;1.80;;
73575;SDS011;61859;49.204;8.140;2023-05-07T06:25:49;4.90;;;1.90;;
73575;SDS011;61859;49.204;8.140;2023-05-07T06:28:15;2.03;;;1.93;;
73575;SDS011;61859;49.204;8.140;2023-05-07T06:30:41;2.83;;;2.00;;
73575;SDS011;61859;49.204;8.140;2023-05-07T06:33:06;2.30;;;2.00;;
73575;SDS011;61859;49.204;8.140;2023-05-07T06:35:32;2.03;;;1.80;;
73575;SDS011;61859;49.204;8.140;2023-05-07T06:37:57;2.40;;;2.03;;
73575;SDS011;61859;49.204;8.140;2023-05-07T06:40:23;3.13;;;1.80;;
73575;SDS011;61859;49.204;8.140;2023-05-07T06:42:48;2.27;;;1.60;;
73575;SDS011;61859;49.204;8.140;2023-05-07T06:45:14;3.40;;;2.40;;
73575;SDS011;61859;49.204;8.140;2023-05-07T06:47:40;2.63;;;2.20;;
73575;SDS011;61859;49.204;8.140;2023-05-07T06:50:05;2.97;;;1.80;;
73575;SDS011;61859;49.204;8.140;2023-05-07T06:52:31;2.27;;;1.80;;
73575;SDS011;61859;49.204;8.140;2023-05-07T06:54:57;2.87;;;1.87;;
73575;SDS011;61859;49.204;8.140;2023-05-07T06:57:23;2.70;;;1.97;;
73575;SDS011;61859;49.204;8.140;2023-05-07T06:59:49;2.30;;;2.03;;
73575;SDS011;61859;49.204;8.140;2023-05-07T07:02:14;2.70;;;1.80;;
73575;SDS011;61859;49.204;8.140;2023-05-07T07:04:40;2.63;;;1.90;;
73575;SDS011;61859;49.204;8.140;2023-05-07T07:07:06;2.40;;;2.20;;
73575;SDS011;61859;49.204;8.140;2023-05-07T07:09:32;2.07;;;1.83;;
73575;SDS011;61859;49.204;8.140;2023-05-07T07:11:58;2.63;;;1.70;;
73575;SDS011;61859;49.204;8.140;2023-05-07T07:14:23;2.47;;;1.80;;
73575;SDS011;61859;49.204;8.140;2023-05-07T07:16:49;2.47;;;1.80;;
73575;SDS011;61859;49.204;8.140;2023-05-07T07:19:14;4.20;;;2.00;;
73575;SDS011;61859;49.204;8.140;2023-05-07T07:21:41;2.10;;;1.90;;
73575;SDS011;61859;49.204;8.140;2023-05-07T07:24:06;1.83;;;1.73;;
73575;SDS011;61859;49.204;8.140;2023-05-07T07:26:32;2.17;;;1.97;;
73575;SDS011;61859;49.204;8.140;2023-05-07T07:28:58;2.20;;;2.00;;
73575;SDS011;61859;49.204;8.140;2023-05-07T07:31:23;4.73;;;1.77;;
73575;SDS011;61859;49.204;8.140;2023-05-07T07:33:49;2.50;;;2.07;;
73575;SDS011;61859;49.204;8.140;2023-05-07T07:36:15;1.60;;;1.50;;
73575;SDS011;61859;49.204;8.140;2023-05-07T07:38:40;1.60;;;1.50;;
73575;SDS011;61859;49.204;8.140;2023-05-07T07:41:07;1.50;;;1.40;;
73575;SDS011;61859;49.204;8.140;2023-05-07T07:43:33;1.70;;;1.60;;
73575;SDS011;61859;49.204;8.140;2023-05-07T07:45:59;2.37;;;1.90;;
73575;SDS011;61859;49.204;8.140;2023-05-07T07:48:24;2.17;;;1.80;;
73575;SDS011;61859;49.204;8.140;2023-05-07T07:50:50;2.60;;;1.70;;
73575;SDS011;61859;49.204;8.140;2023-05-07T07:53:18;2.53;;;2.00;;
73575;SDS011;61859;49.204;8.140;2023-05-07T07:55:44;3.13;;;2.03;;
73575;SDS011;61859;49.204;8.140;2023-05-07T07:58:10;2.27;;;1.90;;
73575;SDS011;61859;49.204;8.140;2023-05-07T08:00:36;3.23;;;2.43;;
73575;SDS011;61859;49.204;8.140;2023-05-07T08:03:01;3.17;;;1.70;;
73575;SDS011;61859;49.204;8.140;2023-05-07T08:05:28;1.63;;;1.50;;
73575;SDS011;61859;49.204;8.140;2023-05-07T08:07:54;1.80;;;1.70;;
73575;SDS011;61859;49.204;8.140;2023-05-07T08:10:19;2.80;;;1.90;;
73575;SDS011;61859;49.204;8.140;2023-05-07T08:12:49;2.22;;;1.90;;
73575;SDS011;61859;49.204;8.140;2023-05-07T08:15:15;3.17;;;1.52;;
73575;SDS011;61859;49.204;8.140;2023-05-07T08:17:41;2.83;;;1.50;;
73575;SDS011;61859;49.204;8.140;2023-05-07T08:20:08;2.72;;;1.80;;
73575;SDS011;61859;49.204;8.140;2023-05-07T08:22:37;1.98;;;1.52;;
73575;SDS011;61859;49.204;8.140;2023-05-07T08:25:02;1.65;;;1.55;;
73575;SDS011;61859;49.204;8.140;2023-05-07T08:27:28;2.05;;;1.80;;
73575;SDS011;61859;49.204;8.140;2023-05-07T08:29:54;1.65;;;1.55;;
73575;SDS011;61859;49.204;8.140;2023-05-07T08:32:19;1.70;;;1.60;;
73575;SDS011;61859;49.204;8.140;2023-05-07T08:34:45;3.83;;;1.60;;
73575;SDS011;61859;49.204;8.140;2023-05-07T08:37:11;2.17;;;1.60;;
73575;SDS011;61859;49.204;8.140;2023-05-07T08:39:36;1.70;;;1.58;;
73575;SDS011;61859;49.204;8.140;2023-05-07T08:42:02;1.50;;;1.40;;
73575;SDS011;61859;49.204;8.140;2023-05-07T08:44:30;2.05;;;1.40;;
73575;SDS011;61859;49.204;8.140;2023-05-07T08:46:58;1.65;;;1.40;;
73575;SDS011;61859;49.204;8.140;2023-05-07T08:49:26;1.75;;;1.50;;
73575;SDS011;61859;49.204;8.140;2023-05-07T08:51:52;1.60;;;1.50;;
73575;SDS011;61859;49.204;8.140;2023-05-07T08:54:18;2.45;;;1.67;;
73575;SDS011;61859;49.204;8.140;2023-05-07T08:56:45;1.95;;;1.73;;
73575;SDS011;61859;49.204;8.140;2023-05-07T08:59:11;1.88;;;1.67;;
73575;SDS011;61859;49.204;8.140;2023-05-07T09:01:36;1.88;;;1.50;;
73575;SDS011;61859;49.204;8.140;2023-05-07T09:04:03;3.92;;;1.90;;
73575;SDS011;61859;49.204;8.140;2023-05-07T09:06:29;2.10;;;1.90;;
73575;SDS011;61859;49.204;8.140;2023-05-07T09:08:55;3.63;;;1.60;;
73575;SDS011;61859;49.204;8.140;2023-05-07T09:11:23;2.00;;;1.90;;
73575;SDS011;61859;49.204;8.140;2023-05-07T09:13:56;1.60;;;1.50;;
73575;SDS011;61859;49.204;8.140;2023-05-07T09:16:25;2.97;;;1.80;;
73575;SDS011;61859;49.204;8.140;2023-05-07T09:18:51;2.10;;;1.63;;
73575;SDS011;61859;49.204;8.140;2023-05-07T09:21:18;2.03;;;1.92;;
73575;SDS011;61859;49.204;8.140;2023-05-07T09:23:45;1.77;;;1.50;;
73575;SDS011;61859;49.204;8.140;2023-05-07T09:26:10;1.70;;;1.60;;
73575;SDS011;61859;49.204;8.140;2023-05-07T09:28:39;1.80;;;1.70;;
73575;SDS011;61859;49.204;8.140;2023-05-07T09:31:09;2.38;;;1.60;;
73575;SDS011;61859;49.204;8.140;2023-05-07T09:33:36;2.53;;;1.70;;
73575;SDS011;61859;49.204;8.140;2023-05-07T09:36:03;2.25;;;1.85;;
73575;SDS011;61859;49.204;8.140;2023-05-07T09:38:30;2.63;;;1.65;;
73575;SDS011;61859;49.204;8.140;2023-05-07T09:43:33;1.67;;;1.58;;
73575;SDS011;61859;49.204;8.140;2023-05-07T09:46:11;2.28;;;1.70;;
73575;SDS011;61859;49.204;8.140;2023-05-07T09:48:38;1.73;;;1.63;;
73575;SDS011;61859;49.204;8.140;2023-05-07T09:51:28;1.83;;;1.50;;
73575;SDS011;61859;49.204;8.140;2023-05-07T09:53:54;1.70;;;1.60;;
73575;SDS011;61859;49.204;8.140;2023-05-07T09:56:20;1.63;;;1.50;;
73575;SDS011;61859;49.204;8.140;2023-05-07T09:58:47;2.45;;;1.75;;
73575;SDS011;61859;49.204;8.140;2023-05-07T10:01:14;1.67;;;1.58;;
73575;SDS011;61859;49.204;8.140;2023-05-07T10:03:42;1.80;;;1.58;;
73575;SDS011;61859;49.204;8.140;2023-05-07T10:06:09;2.65;;;1.40;;
73575;SDS011;61859;49.204;8.140;2023-05-07T10:08:37;2.70;;;1.58;;
73575;SDS011;61859;49.204;8.140;2023-05-07T10:11:03;2.30;;;1.75;;
73575;SDS011;61859;49.204;8.140;2023-05-07T10:13:29;1.95;;;1.75;;
73575;SDS011;61859;49.204;8.140;2023-05-07T10:15:55;1.60;;;1.50;;
73575;SDS011;61859;49.204;8.140;2023-05-07T10:18:21;2.80;;;1.65;;
73575;SDS011;61859;49.204;8.140;2023-05-07T10:20:48;3.38;;;1.50;;
73575;SDS011;61859;49.204;8.140;2023-05-07T10:23:17;1.52;;;1.42;;
73575;SDS011;61859;49.204;8.140;2023-05-07T10:25:48;1.70;;;1.60;;
73575;SDS011;61859;49.204;8.140;2023-05-07T10:28:13;2.10;;;1.90;;
73575;SDS011;61859;49.204;8.140;2023-05-07T10:33:33;1.40;;;1.30;;
73575;SDS011;61859;49.204;8.140;2023-05-07T10:36:01;2.28;;;1.40;;
73575;SDS011;61859;49.204;8.140;2023-05-07T10:38:29;2.08;;;1.90;;
73575;SDS011;61859;49.204;8.140;2023-05-07T10:40:55;1.98;;;1.52;;
73575;SDS011;61859;49.204;8.140;2023-05-07T10:43:21;2.05;;;1.50;;
73575;SDS011;61859;49.204;8.140;2023-05-07T10:48:35;4.07;;;1.75;;
73575;SDS011;61859;49.204;8.140;2023-05-07T10:51:31;1.83;;;1.60;;
73575;SDS011;61859;49.204;8.140;2023-05-07T10:56:35;1.67;;;1.52;;
73575;SDS011;61859;49.204;8.140;2023-05-07T11:01:55;1.60;;;1.50;;
73575;SDS011;61859;49.204;8.140;2023-05-07T11:04:27;1.50;;;1.40;;
73575;SDS011;61859;49.204;8.140;2023-05-07T11:15:06;1.90;;;1.80;;
73575;SDS011;61859;49.204;8.140;2023-05-07T11:17:32;1.75;;;1.63;;
73575;SDS011;61859;49.204;8.140;2023-05-07T11:20:00;1.83;;;1.70;;
73575;SDS011;61859;49.204;8.140;2023-05-07T11:25:05;1.60;;;1.50;;
73575;SDS011;61859;49.204;8.140;2023-05-07T11:27:31;2.80;;;1.50;;
73575;SDS011;61859;49.204;8.140;2023-05-07T11:29:57;2.38;;;1.45;;
73575;SDS011;61859;49.204;8.140;2023-05-07T11:34:56;3.15;;;2.00;;
73575;SDS011;61859;49.204;8.140;2023-05-07T11:37:24;1.73;;;1.45;;
73575;SDS011;61859;49.204;8.140;2023-05-07T11:39:51;1.83;;;1.73;;
73575;SDS011;61859;49.204;8.140;2023-05-07T11:42:36;2.22;;;1.50;;
73575;SDS011;61859;49.204;8.140;2023-05-07T11:45:03;1.30;;;1.30;;
73575;SDS011;61859;49.204;8.140;2023-05-07T11:47:32;1.48;;;1.38;;
73575;SDS011;61859;49.204;8.140;2023-05-07T11:50:04;1.70;;;1.38;;
73575;SDS011;61859;49.204;8.140;2023-05-07T11:52:32;1.60;;;1.50;;
73575;SDS011;61859;49.204;8.140;2023-05-07T11:54:59;1.40;;;1.30;;
73575;SDS011;61859;49.204;8.140;2023-05-07T11:57:26;1.80;;;1.70;;
73575;SDS011;61859;49.204;8.140;2023-05-07T11:59:55;1.80;;;1.70;;
73575;SDS011;61859;49.204;8.140;2023-05-07T12:02:22;1.63;;;1.52;;
73575;SDS011;61859;49.204;8.140;2023-05-07T12:04:49;2.13;;;1.73;;
73575;SDS011;61859;49.204;8.140;2023-05-07T12:07:16;2.55;;;1.80;;
73575;SDS011;61859;49.204;8.140;2023-05-07T12:09:43;1.83;;;1.55;;
73575;SDS011;61859;49.204;8.140;2023-05-07T12:12:10;2.10;;;2.00;;
73575;SDS011;61859;49.204;8.140;2023-05-07T12:14:39;2.00;;;1.80;;
73575;SDS011;61859;49.204;8.140;2023-05-07T12:17:07;1.85;;;1.60;;
73575;SDS011;61859;49.204;8.140;2023-05-07T12:19:36;3.33;;;1.88;;
73575;SDS011;61859;49.204;8.140;2023-05-07T12:22:04;2.75;;;1.80;;
73575;SDS011;61859;49.204;8.140;2023-05-07T12:24:43;3.53;;;1.58;;
73575;SDS011;61859;49.204;8.140;2023-05-07T12:27:09;1.70;;;1.60;;
73575;SDS011;61859;49.204;8.140;2023-05-07T12:29:35;1.73;;;1.45;;
73575;SDS011;61859;49.204;8.140;2023-05-07T12:32:00;2.95;;;1.23;;
73575;SDS011;61859;49.204;8.140;2023-05-07T12:34:26;1.60;;;1.50;;
73575;SDS011;61859;49.204;8.140;2023-05-07T12:36:52;2.42;;;1.60;;
73575;SDS011;61859;49.204;8.140;2023-05-07T12:39:18;1.80;;;1.70;;
73575;SDS011;61859;49.204;8.140;2023-05-07T12:41:56;1.67;;;1.58;;
73575;SDS011;61859;49.204;8.140;2023-05-07T12:44:24;3.20;;;1.60;;
73575;SDS011;61859;49.204;8.140;2023-05-07T12:46:53;2.70;;;1.70;;
73575;SDS011;61859;49.204;8.140;2023-05-07T12:49:19;1.90;;;1.80;;
73575;SDS011;61859;49.204;8.140;2023-05-07T12:51:46;1.55;;;1.40;;
73575;SDS011;61859;49.204;8.140;2023-05-07T12:54:13;1.52;;;1.42;;
73575;SDS011;61859;49.204;8.140;2023-05-07T12:56:59;1.55;;;1.45;;
73575;SDS011;61859;49.204;8.140;2023-05-07T12:59:30;2.47;;;1.40;;
73575;SDS011;61859;49.204;8.140;2023-05-07T13:01:57;3.65;;;1.98;;
73575;SDS011;61859;49.204;8.140;2023-05-07T13:04:24;2.10;;;1.90;;
73575;SDS011;61859;49.204;8.140;2023-05-07T13:06:50;1.60;;;1.50;;
73575;SDS011;61859;49.204;8.140;2023-05-07T13:09:15;3.25;;;1.80;;
73575;SDS011;61859;49.204;8.140;2023-05-07T13:11:41;2.15;;;1.33;;
73575;SDS011;61859;49.204;8.140;2023-05-07T13:14:06;1.70;;;1.55;;
73575;SDS011;61859;49.204;8.140;2023-05-07T13:16:32;1.42;;;1.33;;
73575;SDS011;61859;49.204;8.140;2023-05-07T13:18:57;1.73;;;1.63;;
73575;SDS011;61859;49.204;8.140;2023-05-07T13:21:23;5.20;;;1.70;;
73575;SDS011;61859;49.204;8.140;2023-05-07T13:23:48;2.38;;;1.65;;
73575;SDS011;61859;49.204;8.140;2023-05-07T13:26:14;1.50;;;1.40;;
73575;SDS011;61859;49.204;8.140;2023-05-07T13:28:40;1.60;;;1.50;;
73575;SDS011;61859;49.204;8.140;2023-05-07T13:31:05;1.60;;;1.42;;
73575;SDS011;61859;49.204;8.140;2023-05-07T13:33:30;1.40;;;1.30;;
73575;SDS011;61859;49.204;8.140;2023-05-07T13:35:56;1.30;;;1.30;;
73575;SDS011;61859;49.204;8.140;2023-05-07T13:38:22;1.88;;;1.40;;
73575;SDS011;61859;49.204;8.140;2023-05-07T13:40:47;2.00;;;1.80;;
73575;SDS011;61859;49.204;8.140;2023-05-07T13:43:13;3.28;;;2.13;;
73575;SDS011;61859;49.204;8.140;2023-05-07T13:45:39;1.80;;;1.50;;
73575;SDS011;61859;49.204;8.140;2023-05-07T13:48:05;2.53;;;1.50;;
73575;SDS011;61859;49.204;8.140;2023-05-07T13:50:30;2.75;;;1.63;;
73575;SDS011;61859;49.204;8.140;2023-05-07T13:52:56;2.08;;;1.23;;
73575;SDS011;61859;49.204;8.140;2023-05-07T13:55:22;1.98;;;1.80;;
73575;SDS011;61859;49.204;8.140;2023-05-07T13:57:54;2.40;;;1.90;;
73575;SDS011;61859;49.204;8.140;2023-05-07T14:00:24;1.73;;;1.60;;
73575;SDS011;61859;49.204;8.140;2023-05-07T14:02:51;1.83;;;1.73;;
73575;SDS011;61859;49.204;8.140;2023-05-07T14:05:17;2.80;;;1.73;;
73575;SDS011;61859;49.204;8.140;2023-05-07T14:07:43;2.13;;;1.83;;
73575;SDS011;61859;49.204;8.140;2023-05-07T14:10:08;1.67;;;1.58;;
73575;SDS011;61859;49.204;8.140;2023-05-07T14:12:36;1.40;;;1.30;;
73575;SDS011;61859;49.204;8.140;2023-05-07T14:15:01;2.70;;;1.00;;
73575;SDS011;61859;49.204;8.140;2023-05-07T14:17:27;0.93;;;0.90;;
73575;SDS011;61859;49.204;8.140;2023-05-07T14:19:53;1.23;;;1.10;;
73575;SDS011;61859;49.204;8.140;2023-05-07T14:22:19;1.10;;;1.10;;
73575;SDS011;61859;49.204;8.140;2023-05-07T14:24:46;0.95;;;0.95;;
73575;SDS011;61859;49.204;8.140;2023-05-07T14:27:11;1.83;;;1.10;;
73575;SDS011;61859;49.204;8.140;2023-05-07T14:29:37;1.25;;;1.15;;
73575;SDS011;61859;49.204;8.140;2023-05-07T14:32:02;3.83;;;1.20;;
73575;SDS011;61859;49.204;8.140;2023-05-07T14:34:28;1.35;;;1.00;;
73575;SDS011;61859;49.204;8.140;2023-05-07T14:36:54;3.17;;;1.15;;
73575;SDS011;61859;49.204;8.140;2023-05-07T14:39:20;3.08;;;1.40;;
73575;SDS011;61859;49.204;8.140;2023-05-07T14:41:47;1.30;;;1.20;;
73575;SDS011;61859;49.204;8.140;2023-05-07T14:44:12;1.35;;;1.25;;
73575;SDS011;61859;49.204;8.140;2023-05-07T14:46:38;4.13;;;1.33;;
73575;SDS011;61859;49.204;8.140;2023-05-07T14:49:03;1.85;;;1.40;;
73575;SDS011;61859;49.204;8.140;2023-05-07T14:51:29;1.67;;;1.30;;
73575;SDS011;61859;49.204;8.140;2023-05-07T14:53:55;1.40;;;1.30;;
73575;SDS011;61859;49.204;8.140;2023-05-07T14:56:21;1.98;;;1.40;;
73575;SDS011;61859;49.204;8.140;2023-05-07T14:58:47;1.48;;;1.38;;
73575;SDS011;61859;49.204;8.140;2023-05-07T15:01:13;1.20;;;1.20;;
73575;SDS011;61859;49.204;8.140;2023-05-07T15:03:39;2.00;;;1.20;;
73575;SDS011;61859;49.204;8.140;2023-05-07T15:06:05;3.42;;;0.98;;
73575;SDS011;61859;49.204;8.140;2023-05-07T15:08:30;1.58;;;0.77;;
73575;SDS011;61859;49.204;8.140;2023-05-07T15:10:56;1.38;;;0.98;;